sensor_id;sensor_type;location;lat;lon;timestamp;pressure;altitude;pressure_sealevel;temperature;humidity
78313;BME280;67568;47.438;21.408;2023-07-28T00:01:07;100275.50;;;17.46;65.74
78313;BME280;67568;47.438;21.408;2023-07-28T00:03:33;100277.59;;;17.49;65.04
78313;BME280;67568;47.438;21.408;2023-07-28T00:06:00;100266.41;;;17.49;65.32
78313;BME280;67568;47.438;21.408;2023-07-28T00:08:27;100263.69;;;17.53;65.37
78313;BME280;67568;47.438;21.408;2023-07-28T00:10:53;100260.09;;;17.40;66.63
78313;BME280;67568;47.438;21.408;2023-07-28T00:13:20;100266.31;;;17.34;66.35
78313;BME280;67568;47.438;21.408;2023-07-28T00:15:47;100262.22;;;17.31;66.39
78313;BME280;67568;47.438;21.408;2023-07-28T00:18:14;100268.03;;;17.26;66.75
78313;BME280;67568;47.438;21.408;2023-07-28T00:20:40;100278.88;;;17.15;67.94
78313;BME280;67568;47.438;21.408;2023-07-28T00:23:08;100277.59;;;17.00;67.97
78313;BME280;67568;47.438;21.408;2023-07-28T00:25:34;100273.28;;;17.03;67.94
78313;BME280;67568;47.438;21.408;2023-07-28T00:28:04;100274.47;;;17.14;68.17
78313;BME280;67568;47.438;21.408;2023-07-28T00:30:31;100271.28;;;17.16;67.42
78313;BME280;67568;47.438;21.408;2023-07-28T00:32:58;100274.56;;;17.18;67.90
78313;BME280;67568;47.438;21.408;2023-07-28T00:35:24;100276.56;;;17.17;67.64
78313;BME280;67568;47.438;21.408;2023-07-28T00:37:51;100263.47;;;17.21;67.43
78313;BME280;67568;47.438;21.408;2023-07-28T00:40:18;100261.03;;;17.20;66.79
78313;BME280;67568;47.438;21.408;2023-07-28T00:42:45;100269.44;;;17.20;66.69
78313;BME280;67568;47.438;21.408;2023-07-28T00:45:11;100262.88;;;17.16;66.87
78313;BME280;67568;47.438;21.408;2023-07-28T00:47:39;100268.75;;;17.11;66.59
78313;BME280;67568;47.438;21.408;2023-07-28T00:50:08;100269.19;;;17.13;66.91
78313;BME280;67568;47.438;21.408;2023-07-28T00:52:37;100271.66;;;17.14;67.01
78313;BME280;67568;47.438;21.408;2023-07-28T00:55:05;100272.00;;;17.13;66.08
78313;BME280;67568;47.438;21.408;2023-07-28T00:57:33;100263.16;;;17.11;67.02
78313;BME280;67568;47.438;21.408;2023-07-28T01:00:01;100265.09;;;17.10;66.64
78313;BME280;67568;47.438;21.408;2023-07-28T01:02:28;100256.81;;;17.01;66.76
78313;BME280;67568;47.438;21.408;2023-07-28T01:04:55;100270.09;;;17.04;67.14
78313;BME280;67568;47.438;21.408;2023-07-28T01:07:43;100260.09;;;17.03;67.35
78313;BME280;67568;47.438;21.408;2023-07-28T01:12:43;100256.47;;;17.03;67.42
78313;BME280;67568;47.438;21.408;2023-07-28T01:15:10;100252.06;;;17.02;67.63
78313;BME280;67568;47.438;21.408;2023-07-28T01:17:37;100249.59;;;16.88;68.49
78313;BME280;67568;47.438;21.408;2023-07-28T01:20:04;100247.47;;;16.85;68.65
78313;BME280;67568;47.438;21.408;2023-07-28T01:27:50;100235.88;;;16.74;69.23
78313;BME280;67568;47.438;21.408;2023-07-28T01:30:18;100235.50;;;16.76;69.32
78313;BME280;67568;47.438;21.408;2023-07-28T01:32:47;100246.72;;;16.76;69.24
78313;BME280;67568;47.438;21.408;2023-07-28T01:35:14;100241.34;;;16.71;69.47
78313;BME280;67568;47.438;21.408;2023-07-28T01:37:40;100235.50;;;16.63;69.56
78313;BME280;67568;47.438;21.408;2023-07-28T01:40:08;100228.59;;;16.61;69.46
78313;BME280;67568;47.438;21.408;2023-07-28T01:42:35;100235.25;;;16.56;69.18
78313;BME280;67568;47.438;21.408;2023-07-28T01:45:02;100234.31;;;16.64;69.36
78313;BME280;67568;47.438;21.408;2023-07-28T01:47:28;100233.28;;;16.69;69.30
78313;BME280;67568;47.438;21.408;2023-07-28T01:49:55;100237.97;;;16.65;69.70
78313;BME280;67568;47.438;21.408;2023-07-28T01:52:22;100240.59;;;16.61;69.99
78313;BME280;67568;47.438;21.408;2023-07-28T01:54:49;100232.69;;;16.63;69.82
78313;BME280;67568;47.438;21.408;2023-07-28T01:57:15;100240.41;;;16.67;70.44
78313;BME280;67568;47.438;21.408;2023-07-28T01:59:42;100240.59;;;16.61;71.56
78313;BME280;67568;47.438;21.408;2023-07-28T02:02:09;100244.09;;;16.58;70.86
78313;BME280;67568;47.438;21.408;2023-07-28T02:04:36;100237.31;;;16.47;70.97
78313;BME280;67568;47.438;21.408;2023-07-28T02:07:03;100234.97;;;16.37;70.93
78313;BME280;67568;47.438;21.408;2023-07-28T02:09:29;100238.22;;;16.39;70.94
78313;BME280;67568;47.438;21.408;2023-07-28T02:11:56;100245.78;;;16.38;71.89
78313;BME280;67568;47.438;21.408;2023-07-28T02:14:23;100249.53;;;16.42;71.32
78313;BME280;67568;47.438;21.408;2023-07-28T02:16:49;100254.28;;;16.42;71.42
78313;BME280;67568;47.438;21.408;2023-07-28T02:19:16;100243.00;;;16.38;71.60
78313;BME280;67568;47.438;21.408;2023-07-28T02:21:43;100247.38;;;16.27;71.66
78313;BME280;67568;47.438;21.408;2023-07-28T02:24:10;100253.53;;;16.21;72.17
78313;BME280;67568;47.438;21.408;2023-07-28T02:26:36;100256.31;;;16.21;72.21
78313;BME280;67568;47.438;21.408;2023-07-28T02:29:03;100269.69;;;16.15;71.71
78313;BME280;67568;47.438;21.408;2023-07-28T02:31:30;100266.53;;;16.16;73.12
78313;BME280;67568;47.438;21.408;2023-07-28T02:33:57;100258.16;;;16.16;73.00
78313;BME280;67568;47.438;21.408;2023-07-28T02:36:23;100255.50;;;16.20;72.46
78313;BME280;67568;47.438;21.408;2023-07-28T02:38:50;100259.44;;;16.19;73.40
78313;BME280;67568;47.438;21.408;2023-07-28T02:41:17;100257.69;;;16.14;73.35
78313;BME280;67568;47.438;21.408;2023-07-28T02:43:44;100262.13;;;16.15;73.13
78313;BME280;67568;47.438;21.408;2023-07-28T02:46:10;100253.25;;;16.13;73.46
78313;BME280;67568;47.438;21.408;2023-07-28T02:48:37;100266.53;;;16.16;73.04
78313;BME280;67568;47.438;21.408;2023-07-28T02:51:04;100262.13;;;16.15;73.21
78313;BME280;67568;47.438;21.408;2023-07-28T02:53:31;100264.91;;;16.15;74.00
78313;BME280;67568;47.438;21.408;2023-07-28T02:55:57;100260.38;;;16.11;74.03
78313;BME280;67568;47.438;21.408;2023-07-28T02:58:24;100256.03;;;16.13;73.36
78313;BME280;67568;47.438;21.408;2023-07-28T03:00:51;100248.25;;;16.19;73.67
78313;BME280;67568;47.438;21.408;2023-07-28T03:03:18;100253.03;;;16.18;73.97
78313;BME280;67568;47.438;21.408;2023-07-28T03:05:45;100261.19;;;16.11;74.12
78313;BME280;67568;47.438;21.408;2023-07-28T03:08:12;100260.69;;;16.09;73.58
78313;BME280;67568;47.438;21.408;2023-07-28T03:10:38;100267.84;;;15.98;74.55
78313;BME280;67568;47.438;21.408;2023-07-28T03:13:05;100276.25;;;15.98;74.38
78313;BME280;67568;47.438;21.408;2023-07-28T03:15:32;100275.06;;;15.99;74.97
78313;BME280;67568;47.438;21.408;2023-07-28T03:18:00;100279.03;;;15.98;75.02
78313;BME280;67568;47.438;21.408;2023-07-28T03:20:27;100275.19;;;15.82;75.37
78313;BME280;67568;47.438;21.408;2023-07-28T03:22:54;100284.06;;;15.84;74.91
78313;BME280;67568;47.438;21.408;2023-07-28T03:25:20;100280.47;;;15.83;75.60
78313;BME280;67568;47.438;21.408;2023-07-28T03:27:47;100287.94;;;15.70;76.07
78313;BME280;67568;47.438;21.408;2023-07-28T03:30:14;100279.53;;;15.70;75.75
78313;BME280;67568;47.438;21.408;2023-07-28T03:32:41;100285.13;;;15.70;76.21
78313;BME280;67568;47.438;21.408;2023-07-28T03:35:08;100280.53;;;15.74;75.73
78313;BME280;67568;47.438;21.408;2023-07-28T03:37:35;100285.44;;;15.78;76.11
78313;BME280;67568;47.438;21.408;2023-07-28T03:40:03;100287.13;;;15.61;76.70
78313;BME280;67568;47.438;21.408;2023-07-28T03:42:30;100291.72;;;15.66;76.68
78313;BME280;67568;47.438;21.408;2023-07-28T03:44:57;100287.81;;;15.58;77.07
78313;BME280;67568;47.438;21.408;2023-07-28T03:47:24;100288.31;;;15.60;76.92
78313;BME280;67568;47.438;21.408;2023-07-28T03:49:51;100286.19;;;15.57;77.08
78313;BME280;67568;47.438;21.408;2023-07-28T03:52:18;100288.06;;;15.44;77.97
78313;BME280;67568;47.438;21.408;2023-07-28T03:54:45;100284.13;;;15.45;77.77
78313;BME280;67568;47.438;21.408;2023-07-28T03:57:11;100290.06;;;15.35;77.30
78313;BME280;67568;47.438;21.408;2023-07-28T03:59:38;100286.22;;;15.48;77.63
78313;BME280;67568;47.438;21.408;2023-07-28T04:02:05;100296.78;;;15.43;77.42
78313;BME280;67568;47.438;21.408;2023-07-28T04:04:32;100295.94;;;15.42;77.98
78313;BME280;67568;47.438;21.408;2023-07-28T04:06:58;100300.34;;;15.52;78.04
78313;BME280;67568;47.438;21.408;2023-07-28T04:09:26;100294.00;;;15.72;76.91
78313;BME280;67568;47.438;21.408;2023-07-28T04:11:53;100299.94;;;15.62;77.32
78313;BME280;67568;47.438;21.408;2023-07-28T04:14:20;100293.88;;;15.60;77.26
78313;BME280;67568;47.438;21.408;2023-07-28T04:16:54;100297.13;;;15.62;77.00
78313;BME280;67568;47.438;21.408;2023-07-28T04:19:21;100292.53;;;15.66;77.59
78313;BME280;67568;47.438;21.408;2023-07-28T04:21:47;100294.84;;;15.64;78.01
78313;BME280;67568;47.438;21.408;2023-07-28T04:24:14;100284.94;;;15.76;76.77
78313;BME280;67568;47.438;21.408;2023-07-28T04:26:41;100285.16;;;15.91;77.40
78313;BME280;67568;47.438;21.408;2023-07-28T04:29:08;100273.38;;;16.07;76.65
78313;BME280;67568;47.438;21.408;2023-07-28T04:31:35;100275.59;;;16.13;76.22
78313;BME280;67568;47.438;21.408;2023-07-28T04:34:02;100259.81;;;16.17;76.46
78313;BME280;67568;47.438;21.408;2023-07-28T04:36:28;100275.41;;;16.18;76.14
78313;BME280;67568;47.438;21.408;2023-07-28T04:38:55;100284.72;;;16.44;75.40
78313;BME280;67568;47.438;21.408;2023-07-28T04:41:22;100281.94;;;16.44;75.97
78313;BME280;67568;47.438;21.408;2023-07-28T04:43:49;100273.16;;;16.66;74.06
78313;BME280;67568;47.438;21.408;2023-07-28T04:46:16;100276.59;;;16.84;74.20
78313;BME280;67568;47.438;21.408;2023-07-28T04:48:43;100275.22;;;16.90;73.96
78313;BME280;67568;47.438;21.408;2023-07-28T04:51:10;100280.84;;;17.02;73.38
78313;BME280;67568;47.438;21.408;2023-07-28T04:53:39;100279.59;;;17.37;72.68
78313;BME280;67568;47.438;21.408;2023-07-28T04:56:06;100286.84;;;17.62;71.72
78313;BME280;67568;47.438;21.408;2023-07-28T04:58:32;100284.25;;;17.69;71.76
78313;BME280;67568;47.438;21.408;2023-07-28T05:00:59;100296.50;;;18.02;70.66
78313;BME280;67568;47.438;21.408;2023-07-28T05:03:26;100298.94;;;18.03;70.06
78313;BME280;67568;47.438;21.408;2023-07-28T05:05:53;100295.91;;;18.08;69.87
78313;BME280;67568;47.438;21.408;2023-07-28T05:08:22;100307.13;;;18.08;69.82
78313;BME280;67568;47.438;21.408;2023-07-28T05:10:49;100303.31;;;18.29;69.65
78313;BME280;67568;47.438;21.408;2023-07-28T05:13:16;100297.50;;;18.50;69.22
78313;BME280;67568;47.438;21.408;2023-07-28T05:15:42;100304.75;;;18.51;68.82
78313;BME280;67568;47.438;21.408;2023-07-28T05:18:09;100296.34;;;18.51;68.86
78313;BME280;67568;47.438;21.408;2023-07-28T05:20:36;100291.53;;;18.23;69.98
78313;BME280;67568;47.438;21.408;2023-07-28T05:23:03;100283.53;;;17.97;69.72
78313;BME280;67568;47.438;21.408;2023-07-28T05:25:29;100286.25;;;17.81;70.36
78313;BME280;67568;47.438;21.408;2023-07-28T05:27:56;100276.56;;;17.54;71.84
78313;BME280;67568;47.438;21.408;2023-07-28T05:30:23;100283.91;;;17.71;71.11
78313;BME280;67568;47.438;21.408;2023-07-28T05:32:55;100286.00;;;17.74;71.06
78313;BME280;67568;47.438;21.408;2023-07-28T05:35:22;100287.66;;;17.63;72.13
78313;BME280;67568;47.438;21.408;2023-07-28T05:37:48;100280.75;;;17.72;71.73
78313;BME280;67568;47.438;21.408;2023-07-28T05:40:15;100281.66;;;18.41;69.72
78313;BME280;67568;47.438;21.408;2023-07-28T05:42:42;100275.63;;;18.83;68.97
78313;BME280;67568;47.438;21.408;2023-07-28T05:45:09;100271.66;;;18.84;68.08
78313;BME280;67568;47.438;21.408;2023-07-28T05:47:36;100263.13;;;18.97;67.19
78313;BME280;67568;47.438;21.408;2023-07-28T05:50:04;100268.41;;;19.14;66.97
78313;BME280;67568;47.438;21.408;2023-07-28T05:52:31;100267.31;;;19.03;67.57
78313;BME280;67568;47.438;21.408;2023-07-28T05:54:58;100280.44;;;18.99;67.67
78313;BME280;67568;47.438;21.408;2023-07-28T05:57:25;100272.47;;;18.85;68.32
78313;BME280;67568;47.438;21.408;2023-07-28T05:59:51;100283.06;;;18.92;68.34
78313;BME280;67568;47.438;21.408;2023-07-28T06:02:19;100287.69;;;19.31;67.54
78313;BME280;67568;47.438;21.408;2023-07-28T06:04:45;100285.22;;;19.62;66.17
78313;BME280;67568;47.438;21.408;2023-07-28T06:07:12;100303.63;;;19.59;65.47
78313;BME280;67568;47.438;21.408;2023-07-28T06:09:39;100300.63;;;19.52;65.82
78313;BME280;67568;47.438;21.408;2023-07-28T06:12:06;100299.84;;;19.36;65.01
78313;BME280;67568;47.438;21.408;2023-07-28T06:14:33;100285.69;;;19.64;64.33
78313;BME280;67568;47.438;21.408;2023-07-28T06:17:00;100293.88;;;20.04;63.34
78313;BME280;67568;47.438;21.408;2023-07-28T06:19:26;100291.66;;;20.13;61.94
78313;BME280;67568;47.438;21.408;2023-07-28T06:21:53;100301.66;;;20.30;61.88
78313;BME280;67568;47.438;21.408;2023-07-28T06:24:20;100301.09;;;20.60;61.55
78313;BME280;67568;47.438;21.408;2023-07-28T06:26:46;100300.34;;;20.24;62.30
78313;BME280;67568;47.438;21.408;2023-07-28T06:29:13;100292.25;;;20.42;61.76
78313;BME280;67568;47.438;21.408;2023-07-28T06:31:40;100294.59;;;20.20;62.88
78313;BME280;67568;47.438;21.408;2023-07-28T06:34:07;100287.81;;;20.21;63.03
78313;BME280;67568;47.438;21.408;2023-07-28T06:36:34;100289.88;;;20.25;62.82
78313;BME280;67568;47.438;21.408;2023-07-28T06:39:00;100289.81;;;20.21;62.41
78313;BME280;67568;47.438;21.408;2023-07-28T06:41:27;100285.22;;;20.71;61.93
78313;BME280;67568;47.438;21.408;2023-07-28T06:43:54;100275.75;;;20.60;60.52
78313;BME280;67568;47.438;21.408;2023-07-28T06:46:20;100274.72;;;20.68;61.42
78313;BME280;67568;47.438;21.408;2023-07-28T06:48:47;100278.16;;;20.58;60.61
78313;BME280;67568;47.438;21.408;2023-07-28T06:51:15;100290.03;;;20.51;60.38
78313;BME280;67568;47.438;21.408;2023-07-28T06:53:44;100299.59;;;20.47;61.06
78313;BME280;67568;47.438;21.408;2023-07-28T06:56:12;100287.91;;;20.64;60.70
78313;BME280;67568;47.438;21.408;2023-07-28T06:58:39;100307.22;;;20.85;59.26
78313;BME280;67568;47.438;21.408;2023-07-28T07:01:06;100294.72;;;21.05;58.87
78313;BME280;67568;47.438;21.408;2023-07-28T07:03:33;100298.88;;;21.34;58.07
78313;BME280;67568;47.438;21.408;2023-07-28T07:05:59;100311.75;;;21.36;56.39
78313;BME280;67568;47.438;21.408;2023-07-28T07:08:26;100312.78;;;21.24;56.99
78313;BME280;67568;47.438;21.408;2023-07-28T07:10:53;100319.56;;;21.23;58.18
78313;BME280;67568;47.438;21.408;2023-07-28T07:13:19;100320.22;;;21.13;57.84
78313;BME280;67568;47.438;21.408;2023-07-28T07:19:18;100320.84;;;20.83;58.07
78313;BME280;67568;47.438;21.408;2023-07-28T07:21:45;100324.41;;;20.80;58.57
78313;BME280;67568;47.438;21.408;2023-07-28T07:24:15;100320.25;;;20.93;58.75
78313;BME280;67568;47.438;21.408;2023-07-28T07:26:42;100328.22;;;21.10;58.40
78313;BME280;67568;47.438;21.408;2023-07-28T07:29:09;100328.75;;;21.39;58.28
78313;BME280;67568;47.438;21.408;2023-07-28T07:31:36;100325.84;;;21.82;57.42
78313;BME280;67568;47.438;21.408;2023-07-28T07:34:04;100340.19;;;21.46;57.39
78313;BME280;67568;47.438;21.408;2023-07-28T07:36:31;100330.00;;;21.65;56.94
78313;BME280;67568;47.438;21.408;2023-07-28T07:38:57;100328.16;;;21.76;56.95
78313;BME280;67568;47.438;21.408;2023-07-28T07:41:24;100319.44;;;21.85;57.08
78313;BME280;67568;47.438;21.408;2023-07-28T07:43:54;100329.50;;;21.86;56.69
78313;BME280;67568;47.438;21.408;2023-07-28T07:46:21;100321.75;;;21.52;56.76
78313;BME280;67568;47.438;21.408;2023-07-28T07:48:48;100323.28;;;21.73;57.25
78313;BME280;67568;47.438;21.408;2023-07-28T07:51:16;100321.13;;;21.89;56.69
78313;BME280;67568;47.438;21.408;2023-07-28T07:53:43;100323.94;;;21.89;55.61
78313;BME280;67568;47.438;21.408;2023-07-28T07:56:10;100324.25;;;22.37;53.83
78313;BME280;67568;47.438;21.408;2023-07-28T07:58:37;100329.06;;;22.67;52.17
78313;BME280;67568;47.438;21.408;2023-07-28T08:01:04;100318.91;;;22.62;51.74
78313;BME280;67568;47.438;21.408;2023-07-28T08:03:31;100320.31;;;22.79;51.17
78313;BME280;67568;47.438;21.408;2023-07-28T08:05:58;100332.47;;;23.17;50.53
78313;BME280;67568;47.438;21.408;2023-07-28T08:08:25;100324.84;;;23.25;49.85
78313;BME280;67568;47.438;21.408;2023-07-28T08:10:52;100336.84;;;23.11;50.14
78313;BME280;67568;47.438;21.408;2023-07-28T08:13:18;100338.09;;;22.80;50.98
78313;BME280;67568;47.438;21.408;2023-07-28T08:15:46;100326.88;;;22.90;50.93
78313;BME280;67568;47.438;21.408;2023-07-28T08:18:13;100325.78;;;22.65;50.81
78313;BME280;67568;47.438;21.408;2023-07-28T08:20:40;100320.06;;;22.92;51.09
78313;BME280;67568;47.438;21.408;2023-07-28T08:23:07;100307.38;;;22.78;51.58
78313;BME280;67568;47.438;21.408;2023-07-28T08:25:34;100311.97;;;22.56;49.72
78313;BME280;67568;47.438;21.408;2023-07-28T08:28:01;100312.75;;;22.90;50.32
78313;BME280;67568;47.438;21.408;2023-07-28T08:30:28;100306.81;;;22.99;49.90
78313;BME280;67568;47.438;21.408;2023-07-28T08:32:55;100298.22;;;23.26;50.05
78313;BME280;67568;47.438;21.408;2023-07-28T08:35:22;100300.41;;;23.47;49.34
78313;BME280;67568;47.438;21.408;2023-07-28T08:37:49;100290.97;;;23.28;49.98
78313;BME280;67568;47.438;21.408;2023-07-28T08:40:16;100279.91;;;23.61;48.99
78313;BME280;67568;47.438;21.408;2023-07-28T08:42:43;100284.41;;;23.65;48.19
78313;BME280;67568;47.438;21.408;2023-07-28T08:45:10;100289.28;;;23.68;48.33
78313;BME280;67568;47.438;21.408;2023-07-28T08:47:37;100288.44;;;23.68;48.06
78313;BME280;67568;47.438;21.408;2023-07-28T08:50:05;100298.09;;;23.60;47.00
78313;BME280;67568;47.438;21.408;2023-07-28T08:52:32;100301.56;;;23.39;48.04
78313;BME280;67568;47.438;21.408;2023-07-28T08:55:02;100302.16;;;23.14;47.81
78313;BME280;67568;47.438;21.408;2023-07-28T08:57:28;100289.97;;;23.06;48.07
78313;BME280;67568;47.438;21.408;2023-07-28T08:59:55;100292.34;;;23.49;48.05
78313;BME280;67568;47.438;21.408;2023-07-28T09:02:22;100283.97;;;23.60;47.18
78313;BME280;67568;47.438;21.408;2023-07-28T09:04:49;100279.94;;;23.68;48.58
78313;BME280;67568;47.438;21.408;2023-07-28T09:07:16;100267.94;;;23.78;48.10
78313;BME280;67568;47.438;21.408;2023-07-28T09:09:43;100254.13;;;23.69;46.47
78313;BME280;67568;47.438;21.408;2023-07-28T09:12:10;100259.97;;;23.94;45.03
78313;BME280;67568;47.438;21.408;2023-07-28T09:14:38;100258.38;;;24.04;46.04
78313;BME280;67568;47.438;21.408;2023-07-28T09:17:12;100258.38;;;24.00;45.35
78313;BME280;67568;47.438;21.408;2023-07-28T09:19:57;100260.91;;;24.27;44.58
78313;BME280;67568;47.438;21.408;2023-07-28T09:22:24;100278.03;;;24.45;44.04
78313;BME280;67568;47.438;21.408;2023-07-28T09:24:51;100262.56;;;24.35;44.02
78313;BME280;67568;47.438;21.408;2023-07-28T09:27:24;100248.50;;;24.53;43.26
78313;BME280;67568;47.438;21.408;2023-07-28T09:29:52;100249.00;;;24.91;43.66
78313;BME280;67568;47.438;21.408;2023-07-28T09:32:30;100254.75;;;25.16;42.25
78313;BME280;67568;47.438;21.408;2023-07-28T09:35:14;100247.81;;;25.13;42.25
78313;BME280;67568;47.438;21.408;2023-07-28T09:37:46;100264.00;;;25.13;41.78
78313;BME280;67568;47.438;21.408;2023-07-28T09:40:17;100246.97;;;24.81;42.99
78313;BME280;67568;47.438;21.408;2023-07-28T09:42:46;100248.56;;;24.71;42.82
78313;BME280;67568;47.438;21.408;2023-07-28T09:45:13;100255.81;;;24.54;41.97
78313;BME280;67568;47.438;21.408;2023-07-28T09:48:02;100248.84;;;24.41;42.83
78313;BME280;67568;47.438;21.408;2023-07-28T09:50:35;100239.09;;;24.35;42.74
78313;BME280;67568;47.438;21.408;2023-07-28T09:53:08;100243.97;;;24.38;42.64
78313;BME280;67568;47.438;21.408;2023-07-28T09:55:38;100236.78;;;24.55;42.59
78313;BME280;67568;47.438;21.408;2023-07-28T09:58:05;100237.56;;;24.48;43.46
78313;BME280;67568;47.438;21.408;2023-07-28T10:00:35;100232.72;;;24.45;43.82
78313;BME280;67568;47.438;21.408;2023-07-28T10:03:02;100228.63;;;24.42;42.86
78313;BME280;67568;47.438;21.408;2023-07-28T10:05:30;100239.00;;;24.13;43.81
78313;BME280;67568;47.438;21.408;2023-07-28T10:07:57;100225.25;;;24.08;43.38
78313;BME280;67568;47.438;21.408;2023-07-28T10:10:24;100231.75;;;24.12;43.38
78313;BME280;67568;47.438;21.408;2023-07-28T10:12:53;100227.75;;;24.24;44.35
78313;BME280;67568;47.438;21.408;2023-07-28T10:15:27;100230.19;;;24.33;45.00
78313;BME280;67568;47.438;21.408;2023-07-28T10:17:55;100223.59;;;24.00;43.86
78313;BME280;67568;47.438;21.408;2023-07-28T10:20:35;100229.34;;;24.21;45.32
78313;BME280;67568;47.438;21.408;2023-07-28T10:23:13;100221.81;;;24.54;43.84
78313;BME280;67568;47.438;21.408;2023-07-28T10:25:41;100223.06;;;24.75;44.51
78313;BME280;67568;47.438;21.408;2023-07-28T10:28:37;100206.94;;;25.25;42.14
78313;BME280;67568;47.438;21.408;2023-07-28T10:31:06;100204.44;;;25.52;41.02
78313;BME280;67568;47.438;21.408;2023-07-28T10:33:37;100210.91;;;25.71;42.40
78313;BME280;67568;47.438;21.408;2023-07-28T10:41:34;100205.22;;;25.82;41.25
78313;BME280;67568;47.438;21.408;2023-07-28T10:44:02;100199.56;;;25.64;40.20
78313;BME280;67568;47.438;21.408;2023-07-28T10:46:29;100195.53;;;25.57;41.13
78313;BME280;67568;47.438;21.408;2023-07-28T10:48:56;100185.81;;;25.51;41.14
78313;BME280;67568;47.438;21.408;2023-07-28T10:51:35;100187.34;;;25.99;40.71
78313;BME280;67568;47.438;21.408;2023-07-28T10:54:02;100193.63;;;26.39;38.18
78313;BME280;67568;47.438;21.408;2023-07-28T10:56:32;100191.03;;;26.69;37.04
78313;BME280;67568;47.438;21.408;2023-07-28T10:59:03;100185.50;;;26.44;38.31
78313;BME280;67568;47.438;21.408;2023-07-28T11:01:34;100187.81;;;26.67;37.34
78313;BME280;67568;47.438;21.408;2023-07-28T11:04:17;100189.03;;;26.63;37.24
78313;BME280;67568;47.438;21.408;2023-07-28T11:06:48;100193.50;;;26.67;36.00
78313;BME280;67568;47.438;21.408;2023-07-28T11:09:18;100180.78;;;26.83;36.17
78313;BME280;67568;47.438;21.408;2023-07-28T11:11:46;100177.06;;;26.93;35.93
78313;BME280;67568;47.438;21.408;2023-07-28T11:14:15;100185.88;;;27.06;35.49
78313;BME280;67568;47.438;21.408;2023-07-28T11:16:42;100170.59;;;26.85;36.61
78313;BME280;67568;47.438;21.408;2023-07-28T11:19:11;100155.75;;;26.67;36.71
78313;BME280;67568;47.438;21.408;2023-07-28T11:21:40;100161.53;;;26.53;36.99
78313;BME280;67568;47.438;21.408;2023-07-28T11:24:07;100153.84;;;26.42;36.99
78313;BME280;67568;47.438;21.408;2023-07-28T11:26:41;100154.63;;;26.50;37.07
78313;BME280;67568;47.438;21.408;2023-07-28T11:29:09;100139.16;;;26.55;37.72
78313;BME280;67568;47.438;21.408;2023-07-28T11:31:35;100153.50;;;26.33;38.20
78313;BME280;67568;47.438;21.408;2023-07-28T11:34:02;100139.19;;;26.51;37.79
78313;BME280;67568;47.438;21.408;2023-07-28T11:36:32;100136.25;;;26.65;38.10
78313;BME280;67568;47.438;21.408;2023-07-28T11:39:00;100137.44;;;26.68;38.63
78313;BME280;67568;47.438;21.408;2023-07-28T11:41:27;100143.09;;;26.72;37.00
78313;BME280;67568;47.438;21.408;2023-07-28T11:43:54;100141.50;;;26.71;35.36
78313;BME280;67568;47.438;21.408;2023-07-28T11:46:38;100143.13;;;26.68;36.20
78313;BME280;67568;47.438;21.408;2023-07-28T11:49:15;100135.72;;;26.78;36.77
78313;BME280;67568;47.438;21.408;2023-07-28T11:51:44;100145.97;;;26.68;36.33
78313;BME280;67568;47.438;21.408;2023-07-28T11:54:13;100149.09;;;26.84;36.11
78313;BME280;67568;47.438;21.408;2023-07-28T11:56:44;100139.09;;;26.65;36.03
78313;BME280;67568;47.438;21.408;2023-07-28T11:59:11;100141.53;;;26.67;37.13
78313;BME280;67568;47.438;21.408;2023-07-28T12:04:29;100130.97;;;26.64;39.22
78313;BME280;67568;47.438;21.408;2023-07-28T12:07:10;100135.16;;;26.45;37.17
78313;BME280;67568;47.438;21.408;2023-07-28T12:12:13;100122.16;;;26.47;37.58
78313;BME280;67568;47.438;21.408;2023-07-28T12:14:43;100130.38;;;26.24;37.87
78313;BME280;67568;47.438;21.408;2023-07-28T12:17:18;100124.59;;;26.45;38.30
78313;BME280;67568;47.438;21.408;2023-07-28T12:22:31;100120.38;;;26.68;36.52
78313;BME280;67568;47.438;21.408;2023-07-28T12:24:58;100117.03;;;26.80;36.97
78313;BME280;67568;47.438;21.408;2023-07-28T12:27:24;100094.09;;;27.02;36.29
78313;BME280;67568;47.438;21.408;2023-07-28T12:29:58;100096.44;;;27.10;36.25
78313;BME280;67568;47.438;21.408;2023-07-28T12:32:29;100105.38;;;27.16;36.78
78313;BME280;67568;47.438;21.408;2023-07-28T12:34:59;100101.72;;;27.16;36.51
78313;BME280;67568;47.438;21.408;2023-07-28T12:37:39;100086.06;;;26.89;36.62
78313;BME280;67568;47.438;21.408;2023-07-28T12:40:11;100090.88;;;27.00;36.52
78313;BME280;67568;47.438;21.408;2023-07-28T12:42:41;100095.66;;;27.10;36.64
78313;BME280;67568;47.438;21.408;2023-07-28T12:45:10;100090.72;;;27.14;36.69
78313;BME280;67568;47.438;21.408;2023-07-28T12:47:40;100089.91;;;27.13;36.34
78313;BME280;67568;47.438;21.408;2023-07-28T12:50:07;100086.78;;;27.01;35.56
78313;BME280;67568;47.438;21.408;2023-07-28T12:52:44;100078.75;;;26.92;36.34
78313;BME280;67568;47.438;21.408;2023-07-28T12:55:14;100074.94;;;27.06;36.48
78313;BME280;67568;47.438;21.408;2023-07-28T12:57:41;100078.53;;;27.17;37.23
78313;BME280;67568;47.438;21.408;2023-07-28T13:00:09;100079.88;;;27.02;37.11
78313;BME280;67568;47.438;21.408;2023-07-28T13:02:40;100076.59;;;27.07;36.63
78313;BME280;67568;47.438;21.408;2023-07-28T13:05:08;100077.75;;;27.13;36.80
78313;BME280;67568;47.438;21.408;2023-07-28T13:07:35;100075.25;;;27.15;36.49
78313;BME280;67568;47.438;21.408;2023-07-28T13:10:07;100073.22;;;27.19;36.19